createdAt,value
2018-07-12T00:02:12.614Z,95047.05
2018-07-12T00:04:39.092Z,95044.27
2018-07-12T00:07:05.548Z,95039.36
2018-07-12T00:09:39.197Z,95042.14
2018-07-12T00:12:05.570Z,95045.95
2018-07-12T00:14:32.343Z,95054.69
2018-07-12T00:16:58.689Z,95052.17
2018-07-12T00:19:25.239Z,95048.49
2018-07-12T00:21:51.560Z,95039.55
2018-07-12T00:24:19.065Z,95049.92
2018-07-12T00:26:47.501Z,95051.95
2018-07-12T00:29:13.887Z,95054.73
2018-07-12T00:31:40.275Z,95054.73
2018-07-12T00:34:06.593Z,95046.06
2018-07-12T00:36:32.924Z,95052.98
2018-07-12T00:38:59.243Z,95051.28
2018-07-12T00:41:25.635Z,95052.98
2018-07-12T00:43:52.121Z,95047.34
2018-07-12T00:46:18.521Z,95055.98
2018-07-12T00:48:45.108Z,95050.13
2018-07-12T00:51:11.444Z,95054.67
2018-07-12T00:53:38.087Z,95055.25
2018-07-12T00:56:04.453Z,95058.70
2018-07-12T00:58:30.783Z,95052.75
2018-07-12T01:01:05.438Z,95046.39
2018-07-12T01:03:31.879Z,95049.91
2018-07-12T01:05:58.463Z,95053.27
2018-07-12T01:08:25.097Z,95038.63
2018-07-12T01:10:51.543Z,95044.86
2018-07-12T01:13:18.261Z,95042.25
2018-07-12T01:15:44.619Z,95045.95
2018-07-12T01:18:12.833Z,95041.70
2018-07-12T01:20:47.063Z,95043.98
2018-07-12T01:23:13.421Z,95047.02
2018-07-12T01:25:40.032Z,95046.05
2018-07-12T01:28:06.462Z,95045.47
2018-07-12T01:30:32.816Z,95046.48
2018-07-12T01:32:59.140Z,95044.08
2018-07-12T01:35:25.544Z,95044.84
2018-07-12T01:37:52.033Z,95049.34
2018-07-12T01:40:19.483Z,95049.94
2018-07-12T01:42:46.785Z,95048.44
2018-07-12T01:45:13.448Z,95036.08
2018-07-12T01:47:39.813Z,95048.08
2018-07-12T01:50:06.632Z,95050.89
2018-07-12T01:52:33.246Z,95043.38
2018-07-12T01:54:59.638Z,95043.84
2018-07-12T01:57:26.096Z,95046.39
2018-07-12T01:59:52.488Z,95047.06
2018-07-12T02:02:20.179Z,95045.44
2018-07-12T02:04:46.723Z,95048.31
2018-07-12T02:07:13.624Z,95048.73
2018-07-12T02:09:40.340Z,95047.61
2018-07-12T02:12:06.952Z,95050.50
2018-07-12T02:14:33.404Z,95047.08
2018-07-12T02:17:00.050Z,95050.09
2018-07-12T02:19:26.900Z,95044.75
2018-07-12T02:21:53.484Z,95046.93
2018-07-12T02:24:20.620Z,95041.07
2018-07-12T02:26:46.997Z,95039.44
2018-07-12T02:29:13.615Z,95046.21
2018-07-12T02:31:40.039Z,95049.20
2018-07-12T02:34:06.707Z,95052.09
2018-07-12T02:36:33.622Z,95035.94
2018-07-12T02:39:00.379Z,95042.31
2018-07-12T02:41:26.712Z,95052.97
2018-07-12T02:43:53.290Z,95049.16
2018-07-12T02:46:20.079Z,95054.95
2018-07-12T02:48:46.425Z,95057.05
2018-07-12T02:51:12.796Z,95053.72
2018-07-12T02:53:40.584Z,95057.54
2018-07-12T02:56:07.179Z,95059.23
2018-07-12T02:58:33.648Z,95059.92
2018-07-12T03:01:00.027Z,95058.72
2018-07-12T03:03:26.355Z,95053.69
2018-07-12T03:05:53.078Z,95054.16
2018-07-12T03:08:19.623Z,95054.20
2018-07-12T03:10:46.091Z,95054.56
2018-07-12T03:13:12.487Z,95057.42
2018-07-12T03:15:38.928Z,95054.94
2018-07-12T03:18:05.263Z,95060.64
2018-07-12T03:20:31.740Z,95055.42
2018-07-12T03:22:58.071Z,95056.22
2018-07-12T03:25:24.458Z,95049.22
2018-07-12T03:27:50.813Z,95054.39
2018-07-12T03:30:17.598Z,95045.34
2018-07-12T03:32:44.065Z,95043.75
2018-07-12T03:35:10.505Z,95043.48
2018-07-12T03:37:37.030Z,95050.56
2018-07-12T03:40:03.373Z,95050.97
2018-07-12T03:42:29.718Z,95046.14
2018-07-12T03:44:56.342Z,95054.16
2018-07-12T03:47:22.943Z,95055.64
2018-07-12T03:49:49.320Z,95049.35
2018-07-12T03:52:15.622Z,95047.16
2018-07-12T03:54:41.974Z,95047.12
2018-07-12T03:57:08.628Z,95045.91
2018-07-12T03:59:34.981Z,95051.25
2018-07-12T04:02:01.515Z,95061.63
2018-07-12T04:04:27.893Z,95051.83
2018-07-12T04:06:54.253Z,95053.70
2018-07-12T04:09:20.616Z,95056.86
2018-07-12T04:11:47.068Z,95056.61
2018-07-12T04:14:13.828Z,95053.36
2018-07-12T04:16:40.856Z,95052.21
2018-07-12T04:19:07.572Z,95054.38
2018-07-12T04:21:34.321Z,95051.50
2018-07-12T04:24:00.727Z,95061.09
2018-07-12T04:26:27.107Z,95062.50
2018-07-12T04:28:53.455Z,95069.67
2018-07-12T04:31:19.996Z,95073.30
2018-07-12T04:33:46.350Z,95059.95
2018-07-12T04:36:12.880Z,95070.09
2018-07-12T04:38:39.428Z,95066.77
2018-07-12T04:41:06.206Z,95072.73
2018-07-12T04:43:32.628Z,95073.55
2018-07-12T04:45:59.152Z,95073.06
2018-07-12T04:48:25.574Z,95075.47
2018-07-12T04:50:52.655Z,95082.96
2018-07-12T04:53:19.257Z,95080.77
2018-07-12T04:55:45.722Z,95078.98
2018-07-12T04:58:12.115Z,95084.49
2018-07-12T05:00:38.469Z,95088.94
2018-07-12T05:03:05.105Z,95083.27
2018-07-12T05:05:31.447Z,95079.13
2018-07-12T05:07:57.811Z,95085.33
2018-07-12T05:10:24.180Z,95080.62
2018-07-12T05:12:50.507Z,95082.48
2018-07-12T05:15:16.831Z,95082.17
2018-07-12T05:17:43.178Z,95090.73
2018-07-12T05:20:09.579Z,95092.61
2018-07-12T05:22:36.091Z,95089.81
2018-07-12T05:25:02.551Z,95088.27
2018-07-12T05:27:29.290Z,95091.16
2018-07-12T05:29:55.866Z,95099.83
2018-07-12T05:32:22.488Z,95095.91
2018-07-12T05:34:48.931Z,95091.56
2018-07-12T05:37:15.462Z,95097.66
2018-07-12T05:39:41.790Z,95091.45
2018-07-12T05:42:08.202Z,95096.83
2018-07-12T05:44:34.523Z,95100.09
2018-07-12T05:47:00.851Z,95093.16
2018-07-12T05:49:27.379Z,95099.11
2018-07-12T05:51:53.741Z,95103.19
2018-07-12T05:54:20.111Z,95094.66
2018-07-12T05:56:46.483Z,95095.56
2018-07-12T05:59:12.932Z,95098.09
2018-07-12T06:01:39.698Z,95098.86
2018-07-12T06:04:06.068Z,95101.04
2018-07-12T06:06:32.400Z,95097.02
2018-07-12T06:08:58.878Z,95103.02
2018-07-12T06:11:25.319Z,95108.47
2018-07-12T06:13:52.097Z,95113.71
2018-07-12T06:16:18.683Z,95100.61
2018-07-12T06:18:45.377Z,95109.04
2018-07-12T06:21:11.800Z,95101.34
2018-07-12T06:23:38.487Z,95094.41
2018-07-12T06:26:04.871Z,95107.16
2018-07-12T06:28:31.425Z,95102.66
2018-07-12T06:30:58.003Z,95105.86
2018-07-12T06:33:24.802Z,95113.42
2018-07-12T06:35:51.202Z,95101.25
2018-07-12T06:38:17.762Z,95112.56
2018-07-12T06:40:44.243Z,95117.18
2018-07-12T06:43:11.062Z,95100.51
2018-07-12T06:45:37.555Z,95105.50
2018-07-12T06:48:03.887Z,95092.21
2018-07-12T06:50:30.542Z,95096.98
2018-07-12T06:52:57.125Z,95102.23
2018-07-12T06:55:24.040Z,95092.55
2018-07-12T06:57:50.699Z,95100.41
2018-07-12T07:00:17.070Z,95099.65
2018-07-12T07:02:43.759Z,95101.14
2018-07-12T07:05:10.329Z,95098.17
2018-07-12T07:07:36.720Z,95092.66
2018-07-12T07:10:03.153Z,95105.05
2018-07-12T07:12:29.766Z,95093.06
2018-07-12T07:14:56.355Z,95102.45
2018-07-12T07:17:23.148Z,95089.11
2018-07-12T07:19:49.737Z,95090.13
2018-07-12T07:22:16.349Z,95098.97
2018-07-12T07:24:43.014Z,95094.14
2018-07-12T07:27:09.402Z,95092.11
2018-07-12T07:29:36.245Z,95095.48
2018-07-12T07:32:03.350Z,95087.66
2018-07-12T07:34:30.112Z,95090.80
2018-07-12T07:36:56.727Z,95095.09
2018-07-12T07:39:23.459Z,95086.15
2018-07-12T07:41:49.860Z,95102.52
2018-07-12T07:44:16.532Z,95095.50
2018-07-12T07:46:43.166Z,95099.11
2018-07-12T07:49:09.660Z,95093.26
2018-07-12T07:51:36.119Z,95098.98
2018-07-12T07:54:02.771Z,95088.22
2018-07-12T07:56:29.195Z,95094.53
2018-07-12T07:58:56.053Z,95093.98
2018-07-12T08:01:22.744Z,95091.41
2018-07-12T08:03:49.363Z,95087.45
2018-07-12T08:06:15.949Z,95094.55
2018-07-12T08:08:42.758Z,95095.84
2018-07-12T08:11:09.434Z,95085.83
2018-07-12T08:13:36.055Z,95094.45
2018-07-12T08:16:02.525Z,95095.84
2018-07-12T08:18:29.076Z,95086.68
2018-07-12T08:20:55.701Z,95092.97
2018-07-12T08:23:22.493Z,95090.30
2018-07-12T08:25:49.056Z,95091.99
2018-07-12T08:28:15.650Z,95091.59
2018-07-12T08:30:42.123Z,95083.91
2018-07-12T08:33:08.643Z,95088.31
2018-07-12T08:35:35.356Z,95083.16
2018-07-12T08:38:01.739Z,95082.66
2018-07-12T08:40:28.180Z,95081.91
2018-07-12T08:42:54.679Z,95087.92
2018-07-12T08:45:21.202Z,95081.50
2018-07-12T08:47:47.857Z,95081.66
2018-07-12T08:50:14.472Z,95081.93
2018-07-12T08:52:40.867Z,95075.52
2018-07-12T08:55:07.587Z,95082.47
2018-07-12T08:57:34.149Z,95078.73
2018-07-12T09:00:00.714Z,95087.84
2018-07-12T09:02:27.141Z,95088.12
2018-07-12T09:04:53.553Z,95092.41
2018-07-12T09:07:20.495Z,95081.80
2018-07-12T09:09:47.018Z,95082.77
2018-07-12T09:12:13.758Z,95080.77
2018-07-12T09:14:40.139Z,95073.89
2018-07-12T09:17:06.492Z,95079.55
2018-07-12T09:19:33.218Z,95074.31
2018-07-12T09:21:59.726Z,95082.74
2018-07-12T09:24:26.299Z,95080.77
2018-07-12T09:26:52.710Z,95073.83
2018-07-12T09:29:19.292Z,95077.36
2018-07-12T09:31:45.776Z,95074.84
2018-07-12T09:34:12.174Z,95084.47
2018-07-12T09:36:38.529Z,95069.14
2018-07-12T09:39:04.876Z,95070.98
2018-07-12T09:41:31.286Z,95077.63
2018-07-12T09:43:57.871Z,95066.83
2018-07-12T09:46:24.324Z,95063.41
2018-07-12T09:48:50.743Z,95068.80
2018-07-12T09:51:17.165Z,95069.25
2018-07-12T09:53:43.649Z,95069.59
2018-07-12T09:56:10.187Z,95065.17
2018-07-12T09:58:36.640Z,95060.14
2018-07-12T10:01:03.173Z,95059.08
2018-07-12T10:03:29.940Z,95047.11
2018-07-12T10:05:56.372Z,95050.38
2018-07-12T10:08:22.782Z,95053.84
2018-07-12T10:10:49.448Z,95047.40
2018-07-12T10:13:15.878Z,95043.55
2018-07-12T10:15:42.549Z,95052.58
2018-07-12T10:18:08.975Z,95049.08
2018-07-12T10:20:35.496Z,95052.51
2018-07-12T10:23:02.292Z,95050.12
2018-07-12T10:25:28.752Z,95037.64
2018-07-12T10:27:55.324Z,95044.72
2018-07-12T10:30:21.945Z,95045.67
2018-07-12T10:32:48.662Z,95046.16
2018-07-12T10:35:15.094Z,95042.80
2018-07-12T10:37:41.552Z,95045.48
2018-07-12T10:40:08.134Z,95046.77
2018-07-12T10:42:34.718Z,95036.74
2018-07-12T10:45:01.346Z,95020.53
2018-07-12T10:47:28.195Z,95028.30
2018-07-12T10:49:54.847Z,95034.37
2018-07-12T10:52:21.377Z,95023.41
2018-07-12T10:54:48.025Z,95024.64
2018-07-12T10:57:14.752Z,95028.43
2018-07-12T10:59:41.519Z,95018.91
2018-07-12T11:02:08.364Z,95031.23
2018-07-12T11:04:35.090Z,95032.84
2018-07-12T11:07:01.734Z,95034.08
2018-07-12T11:09:28.332Z,95033.86
2018-07-12T11:11:54.720Z,95022.96
2018-07-12T11:14:21.222Z,95015.13
2018-07-12T11:16:47.628Z,95017.09
2018-07-12T11:19:14.185Z,95014.78
2018-07-12T11:21:40.639Z,95021.52
2018-07-12T11:24:07.049Z,95016.97
2018-07-12T11:26:33.473Z,95013.27
2018-07-12T11:28:59.886Z,95001.98
2018-07-12T11:31:26.546Z,95000.57
2018-07-12T11:33:53.188Z,95001.05
2018-07-12T11:36:20.496Z,94986.91
2018-07-12T11:38:47.191Z,94992.26
2018-07-12T11:41:13.663Z,94990.81
2018-07-12T11:43:40.353Z,94991.78
2018-07-12T11:46:07.033Z,94989.35
2018-07-12T11:48:33.605Z,94989.39
2018-07-12T11:51:00.605Z,94990.49
2018-07-12T11:53:27.729Z,94987.97
2018-07-12T11:55:54.812Z,94989.45
2018-07-12T11:58:21.640Z,94988.09
2018-07-12T12:00:48.442Z,94989.45
2018-07-12T12:03:15.269Z,94989.80
2018-07-12T12:05:42.443Z,94988.03
2018-07-12T12:08:09.612Z,94982.97
2018-07-12T12:10:37.915Z,94984.61
2018-07-12T12:13:04.628Z,94981.55
2018-07-12T12:15:31.595Z,94971.31
2018-07-12T12:17:58.067Z,94988.82
2018-07-12T12:20:25.408Z,94978.96
2018-07-12T12:22:52.382Z,94973.91
2018-07-12T12:25:19.170Z,94974.50
2018-07-12T12:27:46.134Z,94981.68
2018-07-12T12:30:12.948Z,94984.90
2018-07-12T12:32:44.121Z,94971.34
2018-07-12T12:35:10.975Z,94967.52
2018-07-12T12:37:37.829Z,94968.46
2018-07-12T12:40:05.105Z,94967.55
2018-07-12T12:42:31.898Z,94969.14
2018-07-12T12:44:58.923Z,94962.18
2018-07-12T12:47:25.721Z,94962.22
2018-07-12T12:49:52.842Z,94958.45
2018-07-12T12:52:20.113Z,94958.36
2018-07-12T12:54:46.934Z,94958.61
2018-07-12T12:57:13.884Z,94954.03
2018-07-12T12:59:40.619Z,94944.55
2018-07-12T13:02:09.988Z,94958.45
2018-07-12T13:04:38.006Z,94956.72
2018-07-12T13:07:04.636Z,94943.58
2018-07-12T13:09:31.679Z,94951.83
2018-07-12T13:11:58.670Z,94954.19
2018-07-12T13:14:25.465Z,94953.84
2018-07-12T13:16:52.428Z,94964.67
2018-07-12T13:19:19.823Z,94966.20
2018-07-12T13:21:46.744Z,94964.77
2018-07-12T13:24:13.817Z,94968.84
2018-07-12T13:26:40.501Z,94959.23
2018-07-12T13:29:07.435Z,94974.02
2018-07-12T13:31:34.393Z,94971.63
2018-07-12T13:34:01.382Z,94970.94
2018-07-12T13:36:28.606Z,94971.91
2018-07-12T13:38:55.778Z,94977.85
2018-07-12T13:41:22.849Z,94963.28
2018-07-12T13:43:49.867Z,94979.69
2018-07-12T13:46:18.446Z,94977.03
2018-07-12T13:48:45.383Z,94981.14
2018-07-12T13:51:12.385Z,94982.53
2018-07-12T13:53:39.216Z,94978.98
2018-07-12T13:56:06.180Z,94986.03
2018-07-12T13:58:33.156Z,94980.34
2018-07-12T14:00:59.821Z,94981.64
2018-07-12T14:03:26.736Z,94978.86
2018-07-12T14:05:53.702Z,94982.91
2018-07-12T14:08:20.445Z,94980.19
2018-07-12T14:10:46.870Z,94983.73
2018-07-12T14:13:13.371Z,94989.10
2018-07-12T14:15:39.853Z,94987.20
2018-07-12T14:18:06.636Z,94993.81
2018-07-12T14:20:33.070Z,94980.22
2018-07-12T14:23:00.285Z,94992.45
2018-07-12T14:25:26.954Z,94988.28
2018-07-12T14:27:53.398Z,94993.43
2018-07-12T14:30:20.612Z,94983.58
2018-07-12T14:32:47.035Z,94987.05
2018-07-12T14:35:13.702Z,94993.49
2018-07-12T14:37:40.272Z,94992.64
2018-07-12T14:40:06.669Z,94997.70
2018-07-12T14:42:33.690Z,94994.25
2018-07-12T14:45:00.267Z,94989.54
2018-07-12T14:47:27.056Z,94995.86
2018-07-12T14:49:53.546Z,94987.45
2018-07-12T14:52:20.262Z,94976.14
2018-07-12T14:54:47.092Z,94990.08
2018-07-12T14:57:14.149Z,94987.17
2018-07-12T14:59:41.052Z,94974.44
2018-07-12T15:02:07.664Z,94986.37
2018-07-12T15:04:35.169Z,94972.89
2018-07-12T15:07:01.554Z,94972.67
2018-07-12T15:09:28.186Z,94978.42
2018-07-12T15:11:54.504Z,94975.27
2018-07-12T15:14:20.858Z,94971.81
2018-07-12T15:16:47.432Z,94964.58
2018-07-12T15:19:14.514Z,94970.02
2018-07-12T15:21:40.996Z,94969.50
2018-07-12T15:24:07.476Z,94967.30
2018-07-12T15:26:34.042Z,94968.18
2018-07-12T15:29:00.635Z,94965.12
2018-07-12T15:31:27.617Z,94962.27
2018-07-12T15:33:54.085Z,94963.43
2018-07-12T15:36:20.655Z,94958.19
2018-07-12T15:38:47.169Z,94953.23
2018-07-12T15:41:13.510Z,94965.55
2018-07-12T15:43:40.140Z,94955.50
2018-07-12T15:46:06.863Z,94950.04
2018-07-12T15:48:33.249Z,94958.88
2018-07-12T15:50:59.744Z,94959.58
2018-07-12T15:53:26.136Z,94953.96
2018-07-12T15:55:52.548Z,94957.95
2018-07-12T15:58:19.227Z,94959.30
2018-07-12T16:00:45.716Z,94951.95
2018-07-12T16:03:12.160Z,94957.00
2018-07-12T16:05:38.566Z,94960.41
2018-07-12T16:08:05.304Z,94957.89
2018-07-12T16:10:32.065Z,94958.95
2018-07-12T16:12:58.502Z,94951.66
2018-07-12T16:15:25.134Z,94954.81
2018-07-12T16:17:51.603Z,94960.47
2018-07-12T16:20:18.188Z,94951.33
2018-07-12T16:22:44.818Z,94958.09
2018-07-12T16:25:11.171Z,94959.91
2018-07-12T16:27:37.731Z,94967.74
2018-07-12T16:30:04.253Z,94966.19
2018-07-12T16:32:30.872Z,94968.70
2018-07-12T16:34:57.201Z,94971.63
2018-07-12T16:37:23.668Z,94970.61
2018-07-12T16:39:50.077Z,94971.22
2018-07-12T16:42:16.670Z,94973.47
2018-07-12T16:44:43.046Z,94966.26
2018-07-12T16:47:09.641Z,94969.06
2018-07-12T16:49:36.029Z,94965.36
2018-07-12T16:52:02.389Z,94969.61
2018-07-12T16:54:28.942Z,94971.09
2018-07-12T16:56:55.500Z,94967.95
2018-07-12T16:59:22.236Z,94967.02
2018-07-12T17:01:49.073Z,94966.61
2018-07-12T17:04:15.449Z,94970.96
2018-07-12T17:06:42.047Z,94974.36
2018-07-12T17:09:08.376Z,94975.04
2018-07-12T17:11:35.170Z,94975.78
2018-07-12T17:14:01.708Z,94978.09
2018-07-12T17:19:01.160Z,94976.13
2018-07-12T17:21:27.540Z,94970.30
2018-07-12T17:23:54.035Z,94979.34
2018-07-12T17:26:20.383Z,94977.63
2018-07-12T17:28:46.729Z,94980.55
2018-07-12T17:31:13.459Z,94980.36
2018-07-12T17:33:39.989Z,94983.89
2018-07-12T17:36:06.591Z,94977.42
2018-07-12T17:38:32.929Z,94984.72
2018-07-12T17:40:59.287Z,94983.36
2018-07-12T17:43:25.680Z,94983.42
2018-07-12T17:45:52.343Z,94987.97
2018-07-12T17:48:18.734Z,94974.07
2018-07-12T17:50:45.112Z,94987.02
2018-07-12T17:53:11.431Z,94993.15
2018-07-12T17:55:38.240Z,94996.15
2018-07-12T17:58:04.594Z,94998.73
2018-07-12T18:00:31.347Z,94992.42
2018-07-12T18:02:57.875Z,94993.56
2018-07-12T18:05:24.526Z,95004.80
2018-07-12T18:07:51.161Z,95000.78
2018-07-12T18:10:17.923Z,95004.25
2018-07-12T18:12:44.656Z,95009.84
2018-07-12T18:15:11.096Z,95001.86
2018-07-12T18:17:37.474Z,95013.52
2018-07-12T18:20:03.892Z,95017.02
2018-07-12T18:22:30.745Z,95011.75
2018-07-12T18:24:57.170Z,95013.64
2018-07-12T18:27:23.608Z,95016.80
2018-07-12T18:29:49.990Z,95015.50
2018-07-12T18:32:16.379Z,95017.02
2018-07-12T18:34:42.978Z,95019.86
2018-07-12T18:37:09.694Z,95027.98
2018-07-12T18:39:36.571Z,95031.05
2018-07-12T18:42:03.004Z,95026.34
2018-07-12T18:44:29.360Z,95032.67
2018-07-12T18:46:55.752Z,95029.67
2018-07-12T18:49:22.159Z,95033.30
2018-07-12T18:51:49.053Z,95043.98
2018-07-12T18:54:15.712Z,95044.61
2018-07-12T18:56:42.065Z,95051.02
2018-07-12T18:59:08.709Z,95045.70
2018-07-12T19:01:35.071Z,95046.44
2018-07-12T19:04:01.503Z,95058.36
2018-07-12T19:06:28.135Z,95056.45
2018-07-12T19:08:54.741Z,95055.84
2018-07-12T19:11:21.319Z,95063.00
2018-07-12T19:16:21.048Z,95064.59
2018-07-12T19:18:47.446Z,95068.69
2018-07-12T19:21:13.943Z,95062.69
2018-07-12T19:23:40.789Z,95066.15
2018-07-12T19:26:07.126Z,95066.16
2018-07-12T19:28:33.671Z,95070.40
2018-07-12T19:31:00.000Z,95066.92
2018-07-12T19:33:26.343Z,95069.79
2018-07-12T19:35:53.135Z,95071.47
2018-07-12T19:38:20.070Z,95068.73
2018-07-12T19:40:49.556Z,95067.18
2018-07-12T19:43:15.989Z,95070.98
2018-07-12T19:45:42.358Z,95079.04
2018-07-12T19:48:08.711Z,95065.81
2018-07-12T19:50:36.092Z,95074.05
2018-07-12T19:53:02.762Z,95081.43
2018-07-12T19:55:29.270Z,95074.12
2018-07-12T19:57:56.576Z,95070.52
2018-07-12T20:00:22.939Z,95083.11
2018-07-12T20:02:52.831Z,95073.36
2018-07-12T20:05:19.360Z,95082.77
2018-07-12T20:07:45.759Z,95085.36
2018-07-12T20:10:12.543Z,95088.00
2018-07-12T20:12:38.953Z,95091.41
2018-07-12T20:15:05.697Z,95083.22
2018-07-12T20:17:32.043Z,95092.68
2018-07-12T20:19:58.429Z,95095.36
2018-07-12T20:22:25.536Z,95089.69
2018-07-12T20:24:51.948Z,95093.24
2018-07-12T20:27:18.984Z,95086.81
2018-07-12T20:29:45.375Z,95081.02
2018-07-12T20:32:11.690Z,95082.88
2018-07-12T20:34:39.640Z,95095.45
2018-07-12T20:37:06.133Z,95090.48
2018-07-12T20:39:32.852Z,95081.70
2018-07-12T20:41:59.268Z,95085.99
2018-07-12T20:44:25.616Z,95087.49
2018-07-12T20:46:52.389Z,95079.03
2018-07-12T20:49:19.090Z,95079.53
2018-07-12T20:51:45.562Z,95084.20
2018-07-12T20:54:11.931Z,95078.23
2018-07-12T20:56:38.297Z,95082.77
2018-07-12T20:59:05.232Z,95078.73
2018-07-12T21:01:31.626Z,95084.62
2018-07-12T21:03:58.440Z,95083.38
2018-07-12T21:06:24.953Z,95095.02
2018-07-12T21:08:52.300Z,95091.47
2018-07-12T21:11:18.870Z,95097.61
2018-07-12T21:13:45.288Z,95099.02
2018-07-12T21:16:12.566Z,95098.20
2018-07-12T21:18:39.689Z,95095.81
2018-07-12T21:21:06.373Z,95105.02
2018-07-12T21:23:33.021Z,95101.81
2018-07-12T21:25:59.415Z,95106.42
2018-07-12T21:28:25.762Z,95107.78
2018-07-12T21:30:56.283Z,95105.13
2018-07-12T21:33:22.960Z,95114.41
2018-07-12T21:35:52.514Z,95110.36
2018-07-12T21:38:19.017Z,95105.06
2018-07-12T21:40:45.638Z,95110.66
2018-07-12T21:43:12.054Z,95119.70
2018-07-12T21:45:38.769Z,95113.80
2018-07-12T21:48:05.329Z,95115.26
2018-07-12T21:50:32.030Z,95112.88
2018-07-12T21:52:58.400Z,95111.80
2018-07-12T21:55:25.347Z,95115.97
2018-07-12T21:57:52.828Z,95115.52
2018-07-12T22:00:20.802Z,95113.55
2018-07-12T22:02:47.343Z,95113.20
2018-07-12T22:05:14.590Z,95116.05
2018-07-12T22:07:40.922Z,95114.96
2018-07-12T22:10:07.738Z,95110.46
2018-07-12T22:12:34.379Z,95108.23
2018-07-12T22:15:00.743Z,95105.77
2018-07-12T22:17:27.357Z,95106.02
2018-07-12T22:19:54.168Z,95107.94
2018-07-12T22:22:21.764Z,95110.20
2018-07-12T22:24:48.115Z,95109.84
2018-07-12T22:27:14.707Z,95111.66
2018-07-12T22:29:41.118Z,95106.70
2018-07-12T22:32:07.942Z,95115.27
2018-07-12T22:34:34.266Z,95106.90
2018-07-12T22:37:00.706Z,95117.03
2018-07-12T22:39:27.200Z,95106.30
2018-07-12T22:41:54.477Z,95109.48
2018-07-12T22:44:20.914Z,95101.37
2018-07-12T22:46:47.250Z,95103.45
2018-07-12T22:49:14.920Z,95111.20
2018-07-12T22:51:41.359Z,95111.82
2018-07-12T22:54:08.331Z,95119.11
2018-07-12T22:56:35.035Z,95112.23
2018-07-12T22:59:01.632Z,95109.86
2018-07-12T23:01:28.118Z,95117.97
2018-07-12T23:03:54.783Z,95121.18
2018-07-12T23:06:22.060Z,95106.34
2018-07-12T23:08:50.655Z,95105.83
2018-07-12T23:11:16.976Z,95106.70
2018-07-12T23:13:44.547Z,95115.23
2018-07-12T23:16:11.273Z,95112.80
2018-07-12T23:18:38.962Z,95121.38
2018-07-12T23:21:05.424Z,95105.94
2018-07-12T23:23:31.839Z,95104.06
2018-07-12T23:25:58.174Z,95108.88
2018-07-12T23:28:24.507Z,95106.35
2018-07-12T23:30:53.504Z,95105.36
2018-07-12T23:35:52.721Z,95107.37
2018-07-12T23:38:22.127Z,95110.80
2018-07-12T23:40:48.522Z,95106.86
2018-07-12T23:43:15.857Z,95109.45
2018-07-12T23:45:42.240Z,95113.95
2018-07-12T23:48:08.760Z,95109.09
2018-07-12T23:50:35.151Z,95106.30
2018-07-12T23:53:02.102Z,95112.34
2018-07-12T23:55:28.446Z,95105.42
2018-07-12T23:57:55.063Z,95108.00
